createdAt,value
2022-12-27T00:00:16.536Z,17.50
2022-12-27T00:02:45.655Z,17.50
2022-12-27T00:05:16.674Z,17.50
2022-12-27T00:07:46.396Z,17.50
2022-12-27T00:10:15.443Z,17.50
2022-12-27T00:12:44.692Z,17.50
2022-12-27T00:15:13.698Z,17.60
2022-12-27T00:17:45.475Z,17.60
2022-12-27T00:23:09.043Z,17.70
2022-12-27T00:25:38.029Z,17.70
2022-12-27T00:28:07.077Z,17.80
2022-12-27T00:30:36.092Z,17.90
2022-12-27T00:33:07.151Z,18.00
2022-12-27T00:35:38.835Z,18.10
2022-12-27T00:38:08.039Z,18.20
2022-12-27T00:40:40.149Z,18.30
2022-12-27T00:43:09.448Z,18.40
2022-12-27T00:45:38.468Z,18.50
2022-12-27T00:48:07.895Z,18.60
2022-12-27T00:50:36.933Z,18.70
2022-12-27T00:53:05.950Z,18.80
2022-12-27T00:55:35.221Z,19.00
2022-12-27T00:58:04.610Z,19.10
2022-12-27T01:00:33.665Z,19.20
2022-12-27T01:03:02.793Z,19.40
2022-12-27T01:05:31.727Z,19.50
2022-12-27T01:08:00.751Z,19.60
2022-12-27T01:10:29.767Z,19.80
2022-12-27T01:12:59.051Z,19.90
2022-12-27T01:15:28.161Z,20.10
2022-12-27T01:17:57.202Z,20.20
2022-12-27T01:20:26.234Z,20.40
2022-12-27T01:22:56.124Z,20.50
2022-12-27T01:25:25.103Z,20.60
2022-12-27T01:27:54.116Z,20.80
2022-12-27T01:30:23.045Z,20.90
2022-12-27T01:32:52.005Z,21.00
2022-12-27T01:35:20.995Z,21.20
2022-12-27T01:37:50.065Z,21.40
2022-12-27T01:40:19.214Z,21.70
2022-12-27T01:42:54.101Z,21.90
2022-12-27T01:45:24.285Z,22.20
2022-12-27T01:48:22.987Z,22.40
2022-12-27T01:51:00.925Z,22.60
2022-12-27T01:53:37.986Z,22.80
2022-12-27T01:56:26.887Z,23.00
2022-12-27T01:59:15.999Z,23.20
2022-12-27T02:01:48.564Z,23.30
2022-12-27T02:04:20.714Z,23.40
2022-12-27T02:06:50.642Z,23.50
2022-12-27T02:09:31.786Z,23.70
2022-12-27T02:12:03.062Z,23.80
2022-12-27T02:14:39.597Z,24.00
2022-12-27T02:17:22.646Z,24.10
2022-12-27T02:20:15.366Z,24.20
2022-12-27T02:23:43.463Z,24.20
2022-12-27T02:26:41.869Z,24.30
2022-12-27T02:29:24.318Z,24.40
2022-12-27T02:32:08.846Z,24.50
2022-12-27T02:34:49.792Z,24.60
2022-12-27T02:37:21.824Z,24.60
2022-12-27T02:39:53.127Z,24.80
2022-12-27T02:42:41.172Z,24.90
2022-12-27T02:45:40.531Z,24.90
2022-12-27T02:48:32.736Z,25.10
2022-12-27T02:51:32.026Z,25.20
2022-12-27T02:54:16.428Z,25.30
2022-12-27T02:57:11.239Z,25.40
2022-12-27T03:00:09.306Z,25.50
2022-12-27T03:03:16.187Z,25.70
2022-12-27T03:06:17.969Z,25.90
2022-12-27T03:09:43.781Z,26.00
2022-12-27T03:13:02.317Z,26.20
2022-12-27T03:15:49.681Z,26.30
2022-12-27T03:18:39.755Z,26.40
2022-12-27T03:21:28.375Z,26.40
2022-12-27T03:24:18.080Z,26.60
2022-12-27T03:26:50.593Z,26.60
2022-12-27T03:29:41.270Z,26.60
2022-12-27T03:32:31.805Z,26.70
2022-12-27T03:35:22.826Z,26.80
2022-12-27T03:38:05.110Z,26.90
2022-12-27T03:41:13.116Z,27.00
2022-12-27T03:43:42.932Z,27.00
2022-12-27T03:46:35.599Z,27.10
2022-12-27T03:49:12.027Z,27.20
2022-12-27T03:51:56.457Z,27.10
2022-12-27T03:54:36.231Z,27.10
2022-12-27T03:57:09.360Z,27.10
2022-12-27T03:59:38.643Z,27.20
2022-12-27T04:02:08.498Z,27.30
2022-12-27T04:04:38.409Z,27.40
2022-12-27T04:07:08.198Z,27.50
2022-12-27T04:09:55.503Z,27.70
2022-12-27T04:12:42.689Z,27.80
2022-12-27T04:15:30.378Z,27.90
2022-12-27T04:18:17.487Z,28.00
2022-12-27T04:21:04.625Z,28.10
2022-12-27T04:23:51.698Z,28.10
2022-12-27T04:26:38.824Z,28.20
2022-12-27T04:29:26.152Z,28.10
2022-12-27T04:32:13.584Z,28.20
2022-12-27T04:34:45.400Z,28.20
2022-12-27T04:37:17.433Z,28.20
2022-12-27T04:40:05.965Z,28.20
2022-12-27T04:42:52.998Z,28.20
2022-12-27T04:45:40.527Z,28.20
2022-12-27T04:48:33.042Z,28.20
2022-12-27T04:51:21.427Z,28.20
2022-12-27T04:54:08.530Z,28.20
2022-12-27T04:56:37.602Z,28.30
2022-12-27T04:59:24.853Z,28.20
2022-12-27T05:02:06.023Z,28.20
2022-12-27T05:04:38.149Z,28.00
2022-12-27T05:07:27.967Z,28.00
2022-12-27T05:10:15.733Z,28.00
2022-12-27T05:13:02.981Z,28.10
2022-12-27T05:15:32.002Z,28.10
2022-12-27T05:18:00.973Z,28.20
2022-12-27T05:20:30.012Z,28.30
2022-12-27T05:23:17.033Z,28.30
2022-12-27T05:25:47.620Z,28.30
2022-12-27T05:28:16.806Z,28.40
2022-12-27T05:30:46.491Z,28.30
2022-12-27T05:33:15.567Z,28.30
2022-12-27T05:35:44.695Z,28.40
2022-12-27T05:38:13.740Z,28.40
2022-12-27T05:40:42.698Z,28.40
2022-12-27T05:43:11.680Z,28.50
2022-12-27T05:45:40.596Z,28.50
2022-12-27T05:48:09.596Z,28.50
2022-12-27T05:50:38.815Z,28.60
2022-12-27T05:53:07.855Z,28.70
2022-12-27T05:55:36.840Z,28.70
2022-12-27T05:58:05.928Z,28.70
2022-12-27T06:00:35.083Z,28.70
2022-12-27T06:03:05.075Z,28.70
2022-12-27T06:05:34.196Z,28.80
2022-12-27T06:08:03.207Z,28.80
2022-12-27T06:10:32.295Z,28.90
2022-12-27T06:13:04.787Z,29.00
2022-12-27T06:15:34.106Z,29.00
2022-12-27T06:18:04.642Z,29.00
2022-12-27T06:20:33.631Z,28.90
2022-12-27T06:23:02.649Z,28.90
2022-12-27T06:25:31.738Z,29.00
2022-12-27T06:28:00.735Z,29.10
2022-12-27T06:30:35.802Z,29.20
2022-12-27T06:33:05.246Z,29.30
2022-12-27T06:35:34.235Z,29.50
2022-12-27T06:38:03.191Z,29.50
2022-12-27T06:40:32.131Z,29.40
2022-12-27T06:43:01.084Z,29.40
2022-12-27T06:45:30.119Z,29.30
2022-12-27T06:47:59.162Z,29.20
2022-12-27T06:50:28.124Z,29.10
2022-12-27T06:52:57.111Z,28.90
2022-12-27T06:55:26.402Z,28.80
2022-12-27T06:57:55.415Z,28.70
2022-12-27T07:00:24.499Z,28.60
2022-12-27T07:02:53.759Z,28.40
2022-12-27T07:05:22.866Z,28.40
2022-12-27T07:07:54.441Z,28.40
2022-12-27T07:10:23.564Z,28.60
2022-12-27T07:12:52.574Z,28.80
2022-12-27T07:15:21.675Z,29.00
2022-12-27T07:17:50.822Z,29.20
2022-12-27T07:20:19.963Z,29.30
2022-12-27T07:22:49.001Z,29.40
2022-12-27T07:25:18.077Z,29.50
2022-12-27T07:27:47.048Z,29.70
2022-12-27T07:30:16.153Z,29.90
2022-12-27T07:32:47.997Z,30.10
2022-12-27T07:35:17.048Z,30.30
2022-12-27T07:37:48.341Z,30.40
2022-12-27T07:40:17.464Z,30.50
2022-12-27T07:42:47.025Z,30.60
2022-12-27T07:45:16.010Z,30.70
2022-12-27T07:47:45.002Z,30.70
2022-12-27T07:50:14.054Z,30.80
2022-12-27T07:52:43.080Z,30.70
2022-12-27T07:55:12.185Z,30.70
2022-12-27T07:57:41.150Z,30.70
2022-12-27T08:00:11.633Z,30.70
2022-12-27T08:02:40.634Z,30.80
2022-12-27T08:05:10.028Z,30.90
2022-12-27T08:07:39.852Z,30.90
2022-12-27T08:10:09.654Z,30.90
2022-12-27T08:12:41.441Z,30.90
2022-12-27T08:15:12.646Z,30.70
2022-12-27T08:17:44.014Z,30.40
2022-12-27T08:20:16.045Z,30.10
2022-12-27T08:22:45.087Z,29.90
2022-12-27T08:25:16.941Z,29.80
2022-12-27T08:27:48.431Z,29.60
2022-12-27T08:30:17.491Z,29.40
2022-12-27T08:32:46.516Z,29.20
2022-12-27T08:35:50.981Z,29.00
2022-12-27T08:38:04.953Z,28.70
2022-12-27T08:40:34.081Z,28.50
2022-12-27T08:43:03.075Z,28.40
2022-12-27T08:45:34.550Z,28.30
2022-12-27T08:48:07.020Z,28.20
2022-12-27T08:50:36.593Z,28.10
2022-12-27T08:53:07.206Z,28.10
2022-12-27T08:55:36.535Z,28.00
2022-12-27T08:58:13.943Z,28.00
2022-12-27T09:00:45.311Z,28.00
2022-12-27T09:03:14.405Z,28.00
2022-12-27T09:05:43.870Z,28.10
2022-12-27T09:08:13.690Z,28.10
2022-12-27T09:10:42.978Z,28.20
2022-12-27T09:13:12.055Z,28.40
2022-12-27T09:15:41.440Z,28.50
2022-12-27T09:18:12.229Z,28.60
2022-12-27T09:20:41.410Z,28.70
2022-12-27T09:23:10.483Z,28.70
2022-12-27T09:25:39.628Z,28.80
2022-12-27T09:28:09.171Z,28.80
2022-12-27T09:30:38.226Z,28.80
2022-12-27T09:33:08.032Z,28.80
2022-12-27T09:35:38.711Z,28.80
2022-12-27T09:38:07.995Z,28.80
2022-12-27T09:40:37.010Z,28.80
2022-12-27T09:43:23.964Z,28.80
2022-12-27T09:46:01.097Z,28.70
2022-12-27T09:48:35.817Z,28.70
2022-12-27T09:51:17.553Z,28.60
2022-12-27T09:54:01.265Z,28.60
2022-12-27T09:57:01.760Z,28.50
2022-12-27T09:59:46.466Z,28.40
2022-12-27T10:02:29.636Z,28.30
2022-12-27T10:05:19.585Z,28.20
2022-12-27T10:08:27.363Z,28.20
2022-12-27T10:11:35.413Z,28.00
2022-12-27T10:14:27.671Z,28.00
2022-12-27T10:17:15.849Z,27.90
2022-12-27T10:19:54.496Z,27.80
2022-12-27T10:22:52.556Z,27.80
2022-12-27T10:25:24.470Z,27.70
2022-12-27T10:28:00.614Z,27.60
2022-12-27T10:30:32.400Z,27.60
2022-12-27T10:33:02.148Z,27.50
2022-12-27T10:35:31.647Z,27.40
2022-12-27T10:38:02.955Z,27.30
2022-12-27T10:41:24.273Z,27.30
2022-12-27T10:43:55.459Z,27.20
2022-12-27T10:46:32.150Z,27.10
2022-12-27T10:49:32.887Z,27.00
2022-12-27T10:52:25.045Z,26.90
2022-12-27T10:54:56.678Z,26.90
2022-12-27T10:57:35.681Z,26.80
2022-12-27T11:00:21.719Z,26.70
2022-12-27T11:02:59.254Z,26.60
2022-12-27T11:05:31.112Z,26.50
2022-12-27T11:08:02.308Z,26.40
2022-12-27T11:10:35.233Z,26.30
2022-12-27T11:13:08.883Z,26.20
2022-12-27T11:15:45.949Z,26.10
2022-12-27T11:18:25.923Z,26.00
2022-12-27T11:21:00.500Z,25.90
2022-12-27T11:23:37.487Z,25.90
2022-12-27T11:26:27.000Z,25.70
2022-12-27T11:29:02.908Z,25.60
2022-12-27T11:31:45.602Z,25.50
2022-12-27T11:34:45.698Z,25.50
2022-12-27T11:37:24.167Z,25.40
2022-12-27T11:39:56.151Z,25.20
2022-12-27T11:42:44.276Z,25.10
2022-12-27T11:45:28.458Z,25.10
2022-12-27T11:48:22.626Z,25.00
2022-12-27T11:51:31.093Z,24.90
2022-12-27T11:54:20.000Z,24.90
2022-12-27T11:57:07.642Z,24.80
2022-12-27T11:59:59.823Z,24.80
2022-12-27T12:02:50.398Z,24.70
2022-12-27T12:05:40.034Z,24.60
2022-12-27T12:08:37.157Z,24.60
2022-12-27T12:11:23.294Z,24.50
2022-12-27T12:14:36.564Z,24.50
2022-12-27T12:17:22.740Z,24.40
2022-12-27T12:20:25.727Z,24.40
2022-12-27T12:23:05.388Z,24.30
2022-12-27T12:25:49.699Z,24.30
2022-12-27T12:28:59.809Z,24.20
2022-12-27T12:31:51.586Z,24.20
2022-12-27T12:34:20.607Z,24.20
2022-12-27T12:36:58.908Z,24.10
2022-12-27T12:39:52.559Z,24.10
2022-12-27T12:42:43.084Z,24.00
2022-12-27T12:45:31.365Z,23.90
2022-12-27T12:48:34.397Z,23.80
2022-12-27T12:51:34.733Z,23.70
2022-12-27T12:54:18.584Z,23.70
2022-12-27T12:57:06.474Z,23.60
2022-12-27T13:00:11.549Z,23.50
2022-12-27T13:02:40.281Z,23.50
2022-12-27T13:05:47.695Z,23.50
2022-12-27T13:08:44.339Z,23.40
2022-12-27T13:11:32.080Z,23.40
2022-12-27T13:14:38.334Z,23.40
2022-12-27T13:17:39.801Z,23.30
2022-12-27T13:20:36.095Z,23.30
2022-12-27T13:23:46.952Z,23.30
2022-12-27T13:26:42.058Z,23.20
2022-12-27T13:29:14.191Z,23.20
2022-12-27T13:31:46.572Z,23.10
2022-12-27T13:34:35.363Z,23.10
2022-12-27T13:37:21.324Z,23.00
2022-12-27T13:40:29.550Z,23.00
2022-12-27T13:43:13.714Z,22.90
2022-12-27T13:45:48.688Z,22.80
2022-12-27T13:48:36.306Z,22.80
2022-12-27T13:51:14.562Z,22.80
2022-12-27T13:54:09.689Z,22.70
2022-12-27T13:57:32.280Z,22.70
2022-12-27T14:00:12.934Z,22.70
2022-12-27T14:03:18.801Z,22.70
2022-12-27T14:06:06.407Z,22.70
2022-12-27T14:08:56.802Z,22.60
2022-12-27T14:11:47.255Z,22.60
2022-12-27T14:14:19.674Z,22.60
2022-12-27T14:17:15.019Z,22.60
2022-12-27T14:20:34.805Z,22.50
2022-12-27T14:23:25.002Z,22.50
2022-12-27T14:26:21.424Z,22.60
2022-12-27T14:29:18.217Z,22.60
2022-12-27T14:32:27.875Z,22.60
2022-12-27T14:35:18.970Z,22.60
2022-12-27T14:38:24.871Z,22.60
2022-12-27T14:41:05.802Z,22.60
2022-12-27T14:44:13.084Z,22.70
2022-12-27T14:46:54.062Z,22.70
2022-12-27T14:49:35.714Z,22.70
2022-12-27T14:52:13.824Z,22.70
2022-12-27T14:54:57.982Z,22.70
2022-12-27T14:57:34.269Z,22.70
2022-12-27T15:00:25.701Z,22.60
2022-12-27T15:03:15.632Z,22.60
2022-12-27T15:06:18.442Z,22.60
2022-12-27T15:09:11.929Z,22.60
2022-12-27T15:11:53.921Z,22.50
2022-12-27T15:14:42.464Z,22.50
2022-12-27T15:17:18.434Z,22.40
2022-12-27T15:19:59.536Z,22.50
2022-12-27T15:23:06.550Z,22.50
2022-12-27T15:25:41.896Z,22.50
2022-12-27T15:28:28.843Z,22.40
2022-12-27T15:31:19.672Z,22.50
2022-12-27T15:34:10.068Z,22.50
2022-12-27T15:36:44.991Z,22.60
2022-12-27T15:39:35.122Z,22.60
2022-12-27T15:42:37.097Z,22.70
2022-12-27T15:45:19.885Z,22.70
2022-12-27T15:48:00.828Z,22.80
2022-12-27T15:50:40.649Z,22.80
2022-12-27T15:53:44.922Z,22.80
2022-12-27T15:56:16.968Z,22.80
2022-12-27T15:58:46.353Z,22.80
2022-12-27T16:01:25.530Z,22.80
2022-12-27T16:03:56.260Z,22.80
2022-12-27T16:06:37.431Z,22.80
2022-12-27T16:09:25.032Z,22.80
2022-12-27T16:12:09.081Z,22.80
2022-12-27T16:14:41.017Z,22.80
2022-12-27T16:17:31.504Z,22.80
2022-12-27T16:20:06.851Z,22.70
2022-12-27T16:22:44.669Z,22.70
2022-12-27T16:25:31.258Z,22.70
2022-12-27T16:28:03.555Z,22.60
2022-12-27T16:30:49.869Z,22.60
2022-12-27T16:33:29.239Z,22.60
2022-12-27T16:36:18.322Z,22.50
2022-12-27T16:38:47.689Z,22.50
2022-12-27T16:41:53.435Z,22.40
2022-12-27T16:44:36.232Z,22.40
2022-12-27T16:47:34.658Z,22.40
2022-12-27T16:50:41.167Z,22.30
2022-12-27T16:53:33.677Z,22.30
2022-12-27T16:56:16.406Z,22.20
2022-12-27T16:58:45.527Z,22.20
2022-12-27T17:01:53.826Z,22.20
2022-12-27T17:04:59.338Z,22.10
2022-12-27T17:07:51.462Z,22.10
2022-12-27T17:10:29.604Z,22.10
2022-12-27T17:13:01.241Z,22.00
2022-12-27T17:15:31.523Z,22.00
2022-12-27T17:18:10.554Z,21.90
2022-12-27T17:20:42.131Z,21.90
2022-12-27T17:23:11.550Z,21.90
2022-12-27T17:25:50.025Z,21.80
2022-12-27T17:28:30.567Z,21.80
2022-12-27T17:31:14.473Z,21.80
2022-12-27T17:33:59.504Z,21.70
2022-12-27T17:36:48.673Z,21.70
2022-12-27T17:39:57.597Z,21.60
2022-12-27T17:43:43.493Z,21.60
2022-12-27T17:46:31.173Z,21.60
2022-12-27T17:49:00.412Z,21.60
2022-12-27T17:51:31.722Z,21.60
2022-12-27T17:54:19.198Z,21.60
2022-12-27T17:57:17.426Z,21.60
2022-12-27T17:59:51.598Z,21.60
2022-12-27T18:02:20.153Z,21.50
2022-12-27T18:04:53.094Z,21.50
2022-12-27T18:07:29.996Z,21.50
2022-12-27T18:10:24.626Z,21.50
2022-12-27T18:13:01.433Z,21.50
2022-12-27T18:15:35.261Z,21.50
2022-12-27T18:18:07.828Z,21.40
2022-12-27T18:20:39.273Z,21.40
2022-12-27T18:23:14.447Z,21.40
2022-12-27T18:25:46.209Z,21.40
2022-12-27T18:28:21.263Z,21.40
2022-12-27T18:30:53.178Z,21.30
2022-12-27T18:33:40.759Z,21.30
2022-12-27T18:36:14.343Z,21.30
2022-12-27T18:38:49.328Z,21.30
2022-12-27T18:41:22.505Z,21.30
2022-12-27T18:44:01.105Z,21.20
2022-12-27T18:46:33.877Z,21.30
2022-12-27T18:49:03.882Z,21.20
2022-12-27T18:51:38.171Z,21.20
2022-12-27T18:54:29.923Z,21.20
2022-12-27T18:57:00.710Z,21.20
2022-12-27T18:59:32.516Z,21.20
2022-12-27T19:02:04.393Z,21.20
2022-12-27T19:04:34.971Z,21.20
2022-12-27T19:07:14.175Z,21.10
2022-12-27T19:09:51.008Z,21.20
2022-12-27T19:12:41.051Z,21.10
2022-12-27T19:15:29.372Z,21.10
2022-12-27T19:18:05.312Z,21.10
2022-12-27T19:20:38.442Z,21.10
2022-12-27T19:23:28.813Z,21.10
2022-12-27T19:26:19.353Z,21.10
2022-12-27T19:29:03.795Z,21.00
2022-12-27T19:31:32.568Z,21.00
2022-12-27T19:34:07.563Z,21.00
2022-12-27T19:36:41.103Z,21.00
2022-12-27T19:39:23.443Z,21.00
2022-12-27T19:41:53.360Z,20.90
2022-12-27T19:44:30.047Z,20.90
2022-12-27T19:46:59.564Z,20.90
2022-12-27T19:49:44.893Z,20.90
2022-12-27T19:52:20.136Z,20.80
2022-12-27T19:54:50.751Z,20.80
2022-12-27T19:57:19.900Z,20.80
2022-12-27T19:59:48.882Z,20.80
2022-12-27T20:02:19.402Z,20.80
2022-12-27T20:04:48.459Z,20.70
2022-12-27T20:07:26.026Z,20.80
2022-12-27T20:09:55.142Z,20.80
2022-12-27T20:12:24.159Z,20.70
2022-12-27T20:14:53.159Z,20.70
2022-12-27T20:17:22.195Z,20.70
2022-12-27T20:19:52.785Z,20.70
2022-12-27T20:22:21.867Z,20.60
2022-12-27T20:24:52.412Z,20.60
2022-12-27T20:27:24.823Z,20.60
2022-12-27T20:29:53.820Z,20.60
2022-12-27T20:32:22.841Z,20.60
2022-12-27T20:34:51.863Z,20.50
2022-12-27T20:37:24.577Z,20.50
2022-12-27T20:39:53.996Z,20.50
2022-12-27T20:42:24.851Z,20.50
2022-12-27T20:44:53.874Z,20.50
2022-12-27T20:47:22.866Z,20.50
2022-12-27T20:49:52.269Z,20.40
2022-12-27T20:52:24.382Z,20.40
2022-12-27T20:54:57.903Z,20.40
2022-12-27T20:57:26.871Z,20.40
2022-12-27T20:59:55.875Z,20.40
2022-12-27T21:02:25.045Z,20.30
2022-12-27T21:04:54.445Z,20.30
2022-12-27T21:07:23.521Z,20.30
2022-12-27T21:09:52.563Z,20.30
2022-12-27T21:12:21.605Z,20.30
2022-12-27T21:14:51.177Z,20.20
2022-12-27T21:17:20.250Z,20.20
2022-12-27T21:19:49.209Z,20.20
2022-12-27T21:22:18.283Z,20.20
2022-12-27T21:24:47.259Z,20.20
2022-12-27T21:27:16.317Z,20.10
2022-12-27T21:29:45.527Z,20.10
2022-12-27T21:32:14.525Z,20.10
2022-12-27T21:34:43.880Z,20.10
2022-12-27T21:37:13.620Z,20.10
2022-12-27T21:39:42.908Z,20.10
2022-12-27T21:42:13.461Z,20.00
2022-12-27T21:44:42.521Z,20.00
2022-12-27T21:47:11.517Z,20.00
2022-12-27T21:49:42.528Z,20.00
2022-12-27T21:52:11.467Z,20.00
2022-12-27T21:54:40.493Z,19.90
2022-12-27T21:57:09.579Z,19.90
2022-12-27T21:59:38.667Z,19.90
2022-12-27T22:02:07.818Z,19.90
2022-12-27T22:07:18.918Z,19.90
2022-12-27T22:09:47.943Z,19.90
2022-12-27T22:12:16.924Z,19.80
2022-12-27T22:14:45.882Z,19.80
2022-12-27T22:17:14.848Z,19.80
2022-12-27T22:19:43.946Z,19.80
2022-12-27T22:22:12.955Z,19.70
2022-12-27T22:24:42.126Z,19.70
2022-12-27T22:27:11.102Z,19.70
2022-12-27T22:29:40.092Z,19.70
2022-12-27T22:35:05.145Z,19.60
2022-12-27T22:37:34.143Z,19.60
2022-12-27T22:40:03.145Z,19.50
2022-12-27T22:42:32.653Z,19.50
2022-12-27T22:45:01.657Z,19.40
2022-12-27T22:47:34.359Z,19.40
2022-12-27T22:50:06.849Z,19.40
2022-12-27T22:52:35.834Z,19.40
2022-12-27T22:55:07.197Z,19.40
2022-12-27T22:57:36.401Z,19.40
2022-12-27T23:00:10.601Z,19.40
2022-12-27T23:02:39.414Z,19.40
2022-12-27T23:05:09.001Z,19.30
2022-12-27T23:08:05.146Z,19.40
2022-12-27T23:10:27.769Z,19.30
2022-12-27T23:12:58.438Z,19.30
2022-12-27T23:15:27.519Z,19.30
2022-12-27T23:17:56.556Z,19.30
2022-12-27T23:20:25.565Z,19.30
2022-12-27T23:22:54.559Z,19.30
2022-12-27T23:25:23.521Z,19.30
2022-12-27T23:27:52.534Z,19.30
2022-12-27T23:30:24.088Z,19.30
2022-12-27T23:32:53.067Z,19.40
2022-12-27T23:35:24.752Z,19.30
2022-12-27T23:37:54.049Z,19.30
2022-12-27T23:40:23.153Z,19.20
2022-12-27T23:42:52.161Z,19.10
2022-12-27T23:45:21.336Z,19.00
2022-12-27T23:47:50.553Z,19.00
2022-12-27T23:50:21.156Z,18.90
2022-12-27T23:52:50.618Z,18.90
2022-12-27T23:55:19.812Z,18.90
2022-12-27T23:57:48.796Z,18.90
